sensor_id;sensor_type;location;lat;lon;timestamp;P1;durP1;ratioP1;P2;durP2;ratioP2
79145;SDS011;68792;53.338;-1.502;2023-04-24T00:02:06;2.40;;;0.88;;
79145;SDS011;68792;53.338;-1.502;2023-04-24T00:04:35;1.85;;;0.80;;
79145;SDS011;68792;53.338;-1.502;2023-04-24T00:07:05;2.17;;;0.80;;
79145;SDS011;68792;53.338;-1.502;2023-04-24T00:09:31;2.17;;;1.02;;
79145;SDS011;68792;53.338;-1.502;2023-04-24T00:11:57;2.35;;;0.95;;
79145;SDS011;68792;53.338;-1.502;2023-04-24T00:14:23;2.45;;;0.93;;
79145;SDS011;68792;53.338;-1.502;2023-04-24T00:16:48;1.42;;;0.80;;
79145;SDS011;68792;53.338;-1.502;2023-04-24T00:19:14;2.65;;;0.93;;
79145;SDS011;68792;53.338;-1.502;2023-04-24T00:21:40;2.42;;;0.90;;
79145;SDS011;68792;53.338;-1.502;2023-04-24T00:24:06;2.33;;;0.68;;
79145;SDS011;68792;53.338;-1.502;2023-04-24T00:26:34;1.55;;;0.70;;
79145;SDS011;68792;53.338;-1.502;2023-04-24T00:28:59;2.42;;;1.02;;
79145;SDS011;68792;53.338;-1.502;2023-04-24T00:31:25;1.67;;;0.90;;
79145;SDS011;68792;53.338;-1.502;2023-04-24T00:33:50;3.90;;;0.70;;
79145;SDS011;68792;53.338;-1.502;2023-04-24T00:36:15;3.28;;;0.68;;
79145;SDS011;68792;53.338;-1.502;2023-04-24T00:38:41;2.75;;;0.80;;
79145;SDS011;68792;53.338;-1.502;2023-04-24T00:41:07;1.95;;;0.70;;
79145;SDS011;68792;53.338;-1.502;2023-04-24T00:43:32;2.83;;;0.90;;
79145;SDS011;68792;53.338;-1.502;2023-04-24T00:45:57;3.15;;;0.80;;
79145;SDS011;68792;53.338;-1.502;2023-04-24T00:48:24;2.78;;;0.80;;
79145;SDS011;68792;53.338;-1.502;2023-04-24T00:50:50;1.33;;;0.57;;
79145;SDS011;68792;53.338;-1.502;2023-04-24T00:53:15;2.45;;;1.05;;
79145;SDS011;68792;53.338;-1.502;2023-04-24T00:55:40;1.70;;;0.70;;
79145;SDS011;68792;53.338;-1.502;2023-04-24T00:58:06;2.20;;;0.65;;
79145;SDS011;68792;53.338;-1.502;2023-04-24T01:00:31;2.05;;;0.63;;
79145;SDS011;68792;53.338;-1.502;2023-04-24T01:02:57;2.63;;;0.75;;
79145;SDS011;68792;53.338;-1.502;2023-04-24T01:05:24;1.70;;;0.73;;
79145;SDS011;68792;53.338;-1.502;2023-04-24T01:10:16;0.97;;;0.73;;
79145;SDS011;68792;53.338;-1.502;2023-04-24T01:12:42;2.63;;;0.70;;
79145;SDS011;68792;53.338;-1.502;2023-04-24T01:15:08;1.75;;;0.70;;
79145;SDS011;68792;53.338;-1.502;2023-04-24T01:17:34;3.05;;;0.98;;
79145;SDS011;68792;53.338;-1.502;2023-04-24T01:20:00;1.55;;;0.60;;
79145;SDS011;68792;53.338;-1.502;2023-04-24T01:22:26;1.85;;;0.60;;
79145;SDS011;68792;53.338;-1.502;2023-04-24T01:24:52;1.85;;;0.60;;
79145;SDS011;68792;53.338;-1.502;2023-04-24T01:27:18;3.45;;;0.85;;
79145;SDS011;68792;53.338;-1.502;2023-04-24T01:29:44;2.50;;;0.50;;
79145;SDS011;68792;53.338;-1.502;2023-04-24T01:32:09;1.00;;;0.60;;
79145;SDS011;68792;53.338;-1.502;2023-04-24T01:34:34;2.15;;;0.77;;
79145;SDS011;68792;53.338;-1.502;2023-04-24T01:37:00;1.42;;;0.60;;
79145;SDS011;68792;53.338;-1.502;2023-04-24T01:39:26;1.75;;;0.55;;
79145;SDS011;68792;53.338;-1.502;2023-04-24T01:41:53;1.77;;;0.57;;
79145;SDS011;68792;53.338;-1.502;2023-04-24T01:44:19;1.48;;;0.63;;
79145;SDS011;68792;53.338;-1.502;2023-04-24T01:46:45;1.58;;;0.77;;
79145;SDS011;68792;53.338;-1.502;2023-04-24T01:49:11;1.50;;;0.50;;
79145;SDS011;68792;53.338;-1.502;2023-04-24T01:51:36;2.05;;;0.60;;
79145;SDS011;68792;53.338;-1.502;2023-04-24T01:54:02;1.27;;;0.93;;
79145;SDS011;68792;53.338;-1.502;2023-04-24T01:56:28;1.98;;;0.40;;
79145;SDS011;68792;53.338;-1.502;2023-04-24T01:58:54;1.92;;;0.30;;
79145;SDS011;68792;53.338;-1.502;2023-04-24T02:01:20;2.22;;;0.60;;
79145;SDS011;68792;53.338;-1.502;2023-04-24T02:03:46;1.23;;;0.40;;
79145;SDS011;68792;53.338;-1.502;2023-04-24T02:06:12;1.10;;;0.43;;
79145;SDS011;68792;53.338;-1.502;2023-04-24T02:08:37;1.17;;;0.40;;
79145;SDS011;68792;53.338;-1.502;2023-04-24T02:11:02;2.20;;;0.52;;
79145;SDS011;68792;53.338;-1.502;2023-04-24T02:13:28;2.35;;;0.77;;
79145;SDS011;68792;53.338;-1.502;2023-04-24T02:15:53;0.98;;;0.30;;
79145;SDS011;68792;53.338;-1.502;2023-04-24T02:18:19;0.90;;;0.32;;
79145;SDS011;68792;53.338;-1.502;2023-04-24T02:20:44;1.58;;;0.32;;
79145;SDS011;68792;53.338;-1.502;2023-04-24T02:23:10;1.60;;;0.50;;
79145;SDS011;68792;53.338;-1.502;2023-04-24T02:25:35;2.10;;;0.45;;
79145;SDS011;68792;53.338;-1.502;2023-04-24T02:28:01;1.73;;;0.32;;
79145;SDS011;68792;53.338;-1.502;2023-04-24T02:30:27;1.20;;;0.40;;
79145;SDS011;68792;53.338;-1.502;2023-04-24T02:32:52;1.17;;;0.40;;
79145;SDS011;68792;53.338;-1.502;2023-04-24T02:35:18;2.08;;;0.63;;
79145;SDS011;68792;53.338;-1.502;2023-04-24T02:37:44;1.05;;;0.38;;
79145;SDS011;68792;53.338;-1.502;2023-04-24T02:40:09;1.27;;;0.30;;
79145;SDS011;68792;53.338;-1.502;2023-04-24T02:42:34;2.00;;;0.40;;
79145;SDS011;68792;53.338;-1.502;2023-04-24T02:45:00;1.60;;;0.50;;
79145;SDS011;68792;53.338;-1.502;2023-04-24T02:47:25;1.17;;;0.57;;
79145;SDS011;68792;53.338;-1.502;2023-04-24T02:49:51;0.90;;;0.20;;
79145;SDS011;68792;53.338;-1.502;2023-04-24T02:52:16;0.98;;;0.40;;
79145;SDS011;68792;53.338;-1.502;2023-04-24T02:54:42;2.15;;;0.50;;
79145;SDS011;68792;53.338;-1.502;2023-04-24T02:57:08;0.82;;;0.43;;
79145;SDS011;68792;53.338;-1.502;2023-04-24T02:59:33;1.08;;;0.50;;
79145;SDS011;68792;53.338;-1.502;2023-04-24T03:01:59;1.70;;;0.30;;
79145;SDS011;68792;53.338;-1.502;2023-04-24T03:04:24;1.25;;;0.30;;
79145;SDS011;68792;53.338;-1.502;2023-04-24T03:06:50;0.88;;;0.30;;
79145;SDS011;68792;53.338;-1.502;2023-04-24T03:09:18;1.65;;;0.40;;
79145;SDS011;68792;53.338;-1.502;2023-04-24T03:11:43;1.67;;;0.30;;
79145;SDS011;68792;53.338;-1.502;2023-04-24T03:14:09;1.65;;;0.35;;
79145;SDS011;68792;53.338;-1.502;2023-04-24T03:16:34;0.65;;;0.20;;
79145;SDS011;68792;53.338;-1.502;2023-04-24T03:18:59;1.10;;;0.32;;
79145;SDS011;68792;53.338;-1.502;2023-04-24T03:21:25;1.08;;;0.30;;
79145;SDS011;68792;53.338;-1.502;2023-04-24T03:26:16;0.75;;;0.30;;
79145;SDS011;68792;53.338;-1.502;2023-04-24T03:28:42;1.45;;;0.32;;
79145;SDS011;68792;53.338;-1.502;2023-04-24T03:31:07;1.17;;;0.30;;
79145;SDS011;68792;53.338;-1.502;2023-04-24T03:33:33;0.80;;;0.32;;
79145;SDS011;68792;53.338;-1.502;2023-04-24T03:35:58;0.85;;;0.35;;
79145;SDS011;68792;53.338;-1.502;2023-04-24T03:38:24;1.23;;;0.40;;
79145;SDS011;68792;53.338;-1.502;2023-04-24T03:40:49;2.42;;;0.55;;
79145;SDS011;68792;53.338;-1.502;2023-04-24T03:43:14;1.13;;;0.30;;
79145;SDS011;68792;53.338;-1.502;2023-04-24T03:45:40;1.02;;;0.52;;
79145;SDS011;68792;53.338;-1.502;2023-04-24T03:48:05;1.00;;;0.28;;
79145;SDS011;68792;53.338;-1.502;2023-04-24T03:50:31;0.82;;;0.50;;
79145;SDS011;68792;53.338;-1.502;2023-04-24T03:52:56;1.40;;;0.20;;
79145;SDS011;68792;53.338;-1.502;2023-04-24T03:55:21;0.60;;;0.20;;
79145;SDS011;68792;53.338;-1.502;2023-04-24T03:57:47;0.90;;;0.25;;
79145;SDS011;68792;53.338;-1.502;2023-04-24T04:00:12;1.58;;;0.75;;
79145;SDS011;68792;53.338;-1.502;2023-04-24T04:02:39;1.20;;;0.40;;
79145;SDS011;68792;53.338;-1.502;2023-04-24T04:05:04;1.60;;;0.63;;
79145;SDS011;68792;53.338;-1.502;2023-04-24T04:07:30;1.42;;;0.30;;
79145;SDS011;68792;53.338;-1.502;2023-04-24T04:09:55;1.27;;;0.35;;
79145;SDS011;68792;53.338;-1.502;2023-04-24T04:12:20;1.48;;;0.40;;
79145;SDS011;68792;53.338;-1.502;2023-04-24T04:14:46;2.13;;;0.40;;
79145;SDS011;68792;53.338;-1.502;2023-04-24T04:17:11;1.45;;;0.57;;
79145;SDS011;68792;53.338;-1.502;2023-04-24T04:19:37;1.27;;;0.25;;
79145;SDS011;68792;53.338;-1.502;2023-04-24T04:22:02;1.23;;;0.22;;
79145;SDS011;68792;53.338;-1.502;2023-04-24T04:24:28;1.25;;;0.50;;
79145;SDS011;68792;53.338;-1.502;2023-04-24T04:26:53;1.58;;;0.52;;
79145;SDS011;68792;53.338;-1.502;2023-04-24T04:29:21;0.95;;;0.47;;
79145;SDS011;68792;53.338;-1.502;2023-04-24T04:31:47;1.60;;;0.30;;
79145;SDS011;68792;53.338;-1.502;2023-04-24T04:34:13;0.80;;;0.30;;
79145;SDS011;68792;53.338;-1.502;2023-04-24T04:36:39;0.90;;;0.40;;
79145;SDS011;68792;53.338;-1.502;2023-04-24T04:41:31;1.98;;;0.45;;
79145;SDS011;68792;53.338;-1.502;2023-04-24T04:43:56;0.80;;;0.20;;
79145;SDS011;68792;53.338;-1.502;2023-04-24T04:46:23;0.82;;;0.40;;
79145;SDS011;68792;53.338;-1.502;2023-04-24T04:48:51;0.90;;;0.22;;
79145;SDS011;68792;53.338;-1.502;2023-04-24T04:51:17;1.52;;;0.40;;
79145;SDS011;68792;53.338;-1.502;2023-04-24T04:53:42;1.98;;;0.50;;
79145;SDS011;68792;53.338;-1.502;2023-04-24T04:56:07;1.23;;;0.35;;
79145;SDS011;68792;53.338;-1.502;2023-04-24T04:58:33;1.65;;;0.30;;
79145;SDS011;68792;53.338;-1.502;2023-04-24T05:00:58;1.25;;;0.22;;
79145;SDS011;68792;53.338;-1.502;2023-04-24T05:03:24;1.48;;;0.43;;
79145;SDS011;68792;53.338;-1.502;2023-04-24T05:05:49;1.25;;;0.10;;
79145;SDS011;68792;53.338;-1.502;2023-04-24T05:08:15;3.33;;;0.50;;
79145;SDS011;68792;53.338;-1.502;2023-04-24T05:10:40;2.72;;;0.52;;
79145;SDS011;68792;53.338;-1.502;2023-04-24T05:13:05;1.02;;;0.30;;
79145;SDS011;68792;53.338;-1.502;2023-04-24T05:15:31;0.50;;;0.22;;
79145;SDS011;68792;53.338;-1.502;2023-04-24T05:17:56;1.65;;;0.43;;
79145;SDS011;68792;53.338;-1.502;2023-04-24T05:20:22;1.58;;;0.30;;
79145;SDS011;68792;53.338;-1.502;2023-04-24T05:22:47;1.35;;;0.30;;
79145;SDS011;68792;53.338;-1.502;2023-04-24T05:25:13;3.05;;;0.50;;
79145;SDS011;68792;53.338;-1.502;2023-04-24T05:27:38;0.90;;;0.30;;
79145;SDS011;68792;53.338;-1.502;2023-04-24T05:30:04;1.50;;;0.80;;
79145;SDS011;68792;53.338;-1.502;2023-04-24T05:32:30;1.70;;;0.45;;
79145;SDS011;68792;53.338;-1.502;2023-04-24T05:34:55;0.82;;;0.22;;
79145;SDS011;68792;53.338;-1.502;2023-04-24T05:37:21;2.47;;;0.63;;
79145;SDS011;68792;53.338;-1.502;2023-04-24T05:39:46;1.15;;;0.20;;
79145;SDS011;68792;53.338;-1.502;2023-04-24T05:42:12;0.93;;;0.45;;
79145;SDS011;68792;53.338;-1.502;2023-04-24T05:44:37;1.73;;;0.55;;
79145;SDS011;68792;53.338;-1.502;2023-04-24T05:47:02;1.35;;;0.40;;
79145;SDS011;68792;53.338;-1.502;2023-04-24T05:49:28;0.68;;;0.30;;
79145;SDS011;68792;53.338;-1.502;2023-04-24T05:51:53;0.70;;;0.20;;
79145;SDS011;68792;53.338;-1.502;2023-04-24T05:54:19;1.52;;;0.73;;
79145;SDS011;68792;53.338;-1.502;2023-04-24T05:56:44;0.75;;;0.20;;
79145;SDS011;68792;53.338;-1.502;2023-04-24T05:59:09;0.85;;;0.35;;
79145;SDS011;68792;53.338;-1.502;2023-04-24T06:01:35;1.23;;;0.30;;
79145;SDS011;68792;53.338;-1.502;2023-04-24T06:04:01;2.08;;;0.40;;
79145;SDS011;68792;53.338;-1.502;2023-04-24T06:06:27;1.80;;;0.30;;
79145;SDS011;68792;53.338;-1.502;2023-04-24T06:11:19;1.58;;;0.45;;
79145;SDS011;68792;53.338;-1.502;2023-04-24T06:13:44;1.85;;;0.40;;
79145;SDS011;68792;53.338;-1.502;2023-04-24T06:16:10;2.03;;;0.20;;
79145;SDS011;68792;53.338;-1.502;2023-04-24T06:18:36;1.58;;;0.50;;
79145;SDS011;68792;53.338;-1.502;2023-04-24T06:21:01;2.17;;;0.40;;
79145;SDS011;68792;53.338;-1.502;2023-04-24T06:23:27;1.40;;;0.50;;
79145;SDS011;68792;53.338;-1.502;2023-04-24T06:25:52;2.40;;;0.40;;
79145;SDS011;68792;53.338;-1.502;2023-04-24T06:28:17;2.50;;;0.47;;
79145;SDS011;68792;53.338;-1.502;2023-04-24T06:30:43;1.10;;;0.40;;
79145;SDS011;68792;53.338;-1.502;2023-04-24T06:33:08;1.20;;;0.22;;
79145;SDS011;68792;53.338;-1.502;2023-04-24T06:35:35;1.52;;;0.65;;
79145;SDS011;68792;53.338;-1.502;2023-04-24T06:38:01;0.68;;;0.30;;
79145;SDS011;68792;53.338;-1.502;2023-04-24T06:40:26;1.67;;;0.40;;
79145;SDS011;68792;53.338;-1.502;2023-04-24T06:42:51;0.70;;;0.20;;
79145;SDS011;68792;53.338;-1.502;2023-04-24T06:45:18;1.35;;;0.40;;
79145;SDS011;68792;53.338;-1.502;2023-04-24T06:50:09;2.20;;;0.40;;
79145;SDS011;68792;53.338;-1.502;2023-04-24T06:52:34;1.83;;;0.52;;
79145;SDS011;68792;53.338;-1.502;2023-04-24T06:55:03;1.00;;;0.25;;
79145;SDS011;68792;53.338;-1.502;2023-04-24T06:57:29;1.30;;;0.40;;
79145;SDS011;68792;53.338;-1.502;2023-04-24T06:59:54;1.13;;;0.43;;
79145;SDS011;68792;53.338;-1.502;2023-04-24T07:02:20;1.77;;;0.40;;
79145;SDS011;68792;53.338;-1.502;2023-04-24T07:04:45;1.92;;;0.32;;
79145;SDS011;68792;53.338;-1.502;2023-04-24T07:07:12;1.77;;;0.40;;
79145;SDS011;68792;53.338;-1.502;2023-04-24T07:09:39;0.95;;;0.20;;
79145;SDS011;68792;53.338;-1.502;2023-04-24T07:12:07;1.10;;;0.30;;
79145;SDS011;68792;53.338;-1.502;2023-04-24T07:14:32;2.33;;;0.40;;
79145;SDS011;68792;53.338;-1.502;2023-04-24T07:16:58;1.90;;;0.60;;
79145;SDS011;68792;53.338;-1.502;2023-04-24T07:19:23;1.13;;;0.45;;
79145;SDS011;68792;53.338;-1.502;2023-04-24T07:21:49;1.00;;;0.20;;
79145;SDS011;68792;53.338;-1.502;2023-04-24T07:24:14;1.65;;;0.30;;
79145;SDS011;68792;53.338;-1.502;2023-04-24T07:26:40;1.52;;;0.32;;
79145;SDS011;68792;53.338;-1.502;2023-04-24T07:29:05;2.63;;;0.60;;
79145;SDS011;68792;53.338;-1.502;2023-04-24T07:33:57;1.83;;;0.30;;
79145;SDS011;68792;53.338;-1.502;2023-04-24T07:36:23;2.90;;;0.43;;
79145;SDS011;68792;53.338;-1.502;2023-04-24T07:38:49;3.15;;;0.35;;
79145;SDS011;68792;53.338;-1.502;2023-04-24T07:41:15;1.90;;;0.50;;
79145;SDS011;68792;53.338;-1.502;2023-04-24T07:43:40;2.35;;;0.30;;
79145;SDS011;68792;53.338;-1.502;2023-04-24T07:46:09;4.07;;;0.57;;
79145;SDS011;68792;53.338;-1.502;2023-04-24T07:48:35;1.85;;;0.30;;
79145;SDS011;68792;53.338;-1.502;2023-04-24T07:51:00;2.55;;;0.50;;
79145;SDS011;68792;53.338;-1.502;2023-04-24T07:53:26;1.25;;;0.50;;
79145;SDS011;68792;53.338;-1.502;2023-04-24T07:55:51;3.00;;;0.38;;
79145;SDS011;68792;53.338;-1.502;2023-04-24T07:58:17;2.63;;;0.50;;
79145;SDS011;68792;53.338;-1.502;2023-04-24T08:00:42;1.75;;;0.47;;
79145;SDS011;68792;53.338;-1.502;2023-04-24T08:03:07;2.38;;;0.40;;
79145;SDS011;68792;53.338;-1.502;2023-04-24T08:05:33;4.50;;;0.90;;
79145;SDS011;68792;53.338;-1.502;2023-04-24T08:07:58;1.73;;;0.35;;
79145;SDS011;68792;53.338;-1.502;2023-04-24T08:10:24;1.27;;;0.38;;
79145;SDS011;68792;53.338;-1.502;2023-04-24T08:12:50;3.22;;;0.57;;
79145;SDS011;68792;53.338;-1.502;2023-04-24T08:15:15;2.97;;;0.88;;
79145;SDS011;68792;53.338;-1.502;2023-04-24T08:17:41;1.20;;;0.40;;
79145;SDS011;68792;53.338;-1.502;2023-04-24T08:20:08;1.50;;;0.40;;
79145;SDS011;68792;53.338;-1.502;2023-04-24T08:22:38;3.10;;;0.57;;
79145;SDS011;68792;53.338;-1.502;2023-04-24T08:25:04;2.13;;;0.57;;
79145;SDS011;68792;53.338;-1.502;2023-04-24T08:27:30;1.40;;;0.50;;
79145;SDS011;68792;53.338;-1.502;2023-04-24T08:29:56;2.67;;;0.77;;
79145;SDS011;68792;53.338;-1.502;2023-04-24T08:34:47;1.83;;;0.60;;
79145;SDS011;68792;53.338;-1.502;2023-04-24T08:37:12;2.53;;;0.52;;
79145;SDS011;68792;53.338;-1.502;2023-04-24T08:39:37;1.90;;;0.60;;
79145;SDS011;68792;53.338;-1.502;2023-04-24T08:42:04;2.00;;;0.57;;
79145;SDS011;68792;53.338;-1.502;2023-04-24T08:44:33;2.08;;;0.60;;
79145;SDS011;68792;53.338;-1.502;2023-04-24T08:46:59;2.25;;;0.55;;
79145;SDS011;68792;53.338;-1.502;2023-04-24T08:49:25;3.67;;;0.77;;
79145;SDS011;68792;53.338;-1.502;2023-04-24T08:51:52;2.38;;;0.47;;
79145;SDS011;68792;53.338;-1.502;2023-04-24T08:54:18;1.70;;;0.57;;
79145;SDS011;68792;53.338;-1.502;2023-04-24T08:56:44;2.35;;;0.63;;
79145;SDS011;68792;53.338;-1.502;2023-04-24T08:59:10;2.92;;;0.77;;
79145;SDS011;68792;53.338;-1.502;2023-04-24T09:04:02;2.08;;;0.43;;
79145;SDS011;68792;53.338;-1.502;2023-04-24T09:06:28;3.28;;;0.93;;
79145;SDS011;68792;53.338;-1.502;2023-04-24T09:08:55;4.18;;;0.95;;
79145;SDS011;68792;53.338;-1.502;2023-04-24T09:11:22;4.63;;;0.60;;
79145;SDS011;68792;53.338;-1.502;2023-04-24T09:13:49;5.05;;;0.90;;
79145;SDS011;68792;53.338;-1.502;2023-04-24T09:16:15;5.03;;;1.00;;
79145;SDS011;68792;53.338;-1.502;2023-04-24T09:18:40;3.75;;;0.55;;
79145;SDS011;68792;53.338;-1.502;2023-04-24T09:21:09;3.92;;;0.80;;
79145;SDS011;68792;53.338;-1.502;2023-04-24T09:23:34;2.30;;;0.80;;
79145;SDS011;68792;53.338;-1.502;2023-04-24T09:26:02;3.28;;;1.00;;
79145;SDS011;68792;53.338;-1.502;2023-04-24T09:28:35;2.63;;;0.80;;
79145;SDS011;68792;53.338;-1.502;2023-04-24T09:31:05;2.85;;;0.68;;
79145;SDS011;68792;53.338;-1.502;2023-04-24T09:33:31;4.50;;;1.05;;
79145;SDS011;68792;53.338;-1.502;2023-04-24T09:35:57;3.33;;;1.00;;
79145;SDS011;68792;53.338;-1.502;2023-04-24T09:38:30;1.95;;;0.80;;
79145;SDS011;68792;53.338;-1.502;2023-04-24T09:41:04;3.05;;;0.80;;
79145;SDS011;68792;53.338;-1.502;2023-04-24T09:43:31;3.15;;;0.75;;
79145;SDS011;68792;53.338;-1.502;2023-04-24T09:45:57;1.58;;;0.60;;
79145;SDS011;68792;53.338;-1.502;2023-04-24T09:48:36;2.97;;;1.10;;
79145;SDS011;68792;53.338;-1.502;2023-04-24T09:51:03;4.47;;;0.98;;
79145;SDS011;68792;53.338;-1.502;2023-04-24T09:53:31;2.83;;;0.90;;
79145;SDS011;68792;53.338;-1.502;2023-04-24T09:56:07;3.17;;;0.80;;
79145;SDS011;68792;53.338;-1.502;2023-04-24T09:58:34;3.28;;;0.90;;
79145;SDS011;68792;53.338;-1.502;2023-04-24T10:01:01;3.25;;;0.70;;
79145;SDS011;68792;53.338;-1.502;2023-04-24T10:03:29;1.95;;;0.90;;
79145;SDS011;68792;53.338;-1.502;2023-04-24T10:05:58;3.53;;;0.90;;
79145;SDS011;68792;53.338;-1.502;2023-04-24T10:08:24;4.47;;;0.90;;
79145;SDS011;68792;53.338;-1.502;2023-04-24T10:10:50;2.75;;;0.77;;
79145;SDS011;68792;53.338;-1.502;2023-04-24T10:13:15;1.95;;;0.98;;
79145;SDS011;68792;53.338;-1.502;2023-04-24T10:15:41;3.83;;;1.30;;
79145;SDS011;68792;53.338;-1.502;2023-04-24T10:18:07;4.40;;;1.02;;
79145;SDS011;68792;53.338;-1.502;2023-04-24T10:20:34;2.30;;;0.90;;
79145;SDS011;68792;53.338;-1.502;2023-04-24T10:23:00;3.47;;;1.10;;
79145;SDS011;68792;53.338;-1.502;2023-04-24T10:25:28;3.83;;;1.23;;
79145;SDS011;68792;53.338;-1.502;2023-04-24T10:27:55;4.30;;;1.13;;
79145;SDS011;68792;53.338;-1.502;2023-04-24T10:30:23;3.08;;;1.02;;
79145;SDS011;68792;53.338;-1.502;2023-04-24T10:32:49;2.92;;;0.95;;
79145;SDS011;68792;53.338;-1.502;2023-04-24T10:35:15;2.47;;;1.00;;
79145;SDS011;68792;53.338;-1.502;2023-04-24T10:40:18;3.13;;;0.80;;
79145;SDS011;68792;53.338;-1.502;2023-04-24T10:42:47;3.05;;;0.95;;
79145;SDS011;68792;53.338;-1.502;2023-04-24T10:45:17;2.10;;;1.08;;
79145;SDS011;68792;53.338;-1.502;2023-04-24T10:54:46;3.30;;;1.02;;
79145;SDS011;68792;53.338;-1.502;2023-04-24T10:59:47;2.95;;;0.65;;
79145;SDS011;68792;53.338;-1.502;2023-04-24T11:02:14;2.85;;;1.00;;
79145;SDS011;68792;53.338;-1.502;2023-04-24T11:04:40;2.20;;;0.85;;
79145;SDS011;68792;53.338;-1.502;2023-04-24T11:07:07;3.33;;;0.60;;
79145;SDS011;68792;53.338;-1.502;2023-04-24T11:09:34;1.67;;;0.73;;
79145;SDS011;68792;53.338;-1.502;2023-04-24T11:15:01;1.67;;;0.80;;
79145;SDS011;68792;53.338;-1.502;2023-04-24T11:17:28;2.47;;;0.85;;
79145;SDS011;68792;53.338;-1.502;2023-04-24T11:20:00;3.00;;;1.00;;
79145;SDS011;68792;53.338;-1.502;2023-04-24T11:22:26;2.80;;;1.00;;
79145;SDS011;68792;53.338;-1.502;2023-04-24T11:24:53;2.67;;;0.75;;
79145;SDS011;68792;53.338;-1.502;2023-04-24T11:27:19;2.20;;;1.25;;
79145;SDS011;68792;53.338;-1.502;2023-04-24T11:29:47;2.28;;;1.08;;
79145;SDS011;68792;53.338;-1.502;2023-04-24T11:32:25;1.80;;;0.70;;
79145;SDS011;68792;53.338;-1.502;2023-04-24T11:34:56;4.25;;;1.00;;
79145;SDS011;68792;53.338;-1.502;2023-04-24T11:39:58;2.63;;;0.90;;
79145;SDS011;68792;53.338;-1.502;2023-04-24T11:42:24;5.65;;;1.08;;
79145;SDS011;68792;53.338;-1.502;2023-04-24T11:44:52;2.20;;;0.88;;
79145;SDS011;68792;53.338;-1.502;2023-04-24T11:47:18;2.00;;;1.25;;
79145;SDS011;68792;53.338;-1.502;2023-04-24T11:49:43;2.88;;;0.90;;
79145;SDS011;68792;53.338;-1.502;2023-04-24T11:52:09;3.72;;;0.85;;
79145;SDS011;68792;53.338;-1.502;2023-04-24T11:54:35;3.50;;;0.93;;
79145;SDS011;68792;53.338;-1.502;2023-04-24T11:57:03;4.13;;;1.42;;
79145;SDS011;68792;53.338;-1.502;2023-04-24T11:59:34;3.03;;;0.88;;
79145;SDS011;68792;53.338;-1.502;2023-04-24T12:02:00;1.83;;;0.88;;
79145;SDS011;68792;53.338;-1.502;2023-04-24T12:04:26;3.70;;;0.98;;
79145;SDS011;68792;53.338;-1.502;2023-04-24T12:07:03;3.03;;;0.90;;
79145;SDS011;68792;53.338;-1.502;2023-04-24T12:12:14;2.42;;;1.00;;
79145;SDS011;68792;53.338;-1.502;2023-04-24T12:14:47;2.15;;;0.75;;
79145;SDS011;68792;53.338;-1.502;2023-04-24T12:17:14;2.10;;;1.20;;
79145;SDS011;68792;53.338;-1.502;2023-04-24T12:19:44;3.13;;;1.05;;
79145;SDS011;68792;53.338;-1.502;2023-04-24T12:22:11;3.13;;;0.90;;
79145;SDS011;68792;53.338;-1.502;2023-04-24T12:24:54;5.45;;;1.15;;
79145;SDS011;68792;53.338;-1.502;2023-04-24T12:27:25;2.28;;;0.90;;
79145;SDS011;68792;53.338;-1.502;2023-04-24T12:30:01;2.22;;;0.88;;
79145;SDS011;68792;53.338;-1.502;2023-04-24T12:32:28;1.58;;;0.88;;
79145;SDS011;68792;53.338;-1.502;2023-04-24T12:34:54;4.45;;;1.33;;
79145;SDS011;68792;53.338;-1.502;2023-04-24T12:37:20;6.07;;;1.35;;
79145;SDS011;68792;53.338;-1.502;2023-04-24T12:42:31;4.00;;;1.17;;
79145;SDS011;68792;53.338;-1.502;2023-04-24T12:44:58;2.25;;;1.17;;
79145;SDS011;68792;53.338;-1.502;2023-04-24T12:47:25;3.53;;;1.63;;
79145;SDS011;68792;53.338;-1.502;2023-04-24T12:49:50;6.22;;;1.75;;
79145;SDS011;68792;53.338;-1.502;2023-04-24T12:54:44;4.05;;;1.50;;
79145;SDS011;68792;53.338;-1.502;2023-04-24T12:57:10;4.40;;;1.48;;
79145;SDS011;68792;53.338;-1.502;2023-04-24T12:59:36;4.45;;;1.58;;
79145;SDS011;68792;53.338;-1.502;2023-04-24T13:02:01;3.85;;;1.35;;
79145;SDS011;68792;53.338;-1.502;2023-04-24T13:04:27;4.95;;;1.95;;
79145;SDS011;68792;53.338;-1.502;2023-04-24T13:06:52;3.00;;;1.00;;
79145;SDS011;68792;53.338;-1.502;2023-04-24T13:09:17;4.13;;;1.20;;
79145;SDS011;68792;53.338;-1.502;2023-04-24T13:11:43;3.58;;;1.17;;
79145;SDS011;68792;53.338;-1.502;2023-04-24T13:14:08;3.58;;;1.10;;
79145;SDS011;68792;53.338;-1.502;2023-04-24T13:16:34;3.47;;;1.02;;
79145;SDS011;68792;53.338;-1.502;2023-04-24T13:18:59;3.55;;;1.10;;
79145;SDS011;68792;53.338;-1.502;2023-04-24T13:21:24;3.42;;;1.65;;
79145;SDS011;68792;53.338;-1.502;2023-04-24T13:23:51;2.58;;;1.25;;
79145;SDS011;68792;53.338;-1.502;2023-04-24T13:26:16;3.65;;;1.17;;
79145;SDS011;68792;53.338;-1.502;2023-04-24T13:28:42;2.85;;;0.98;;
79145;SDS011;68792;53.338;-1.502;2023-04-24T13:31:07;3.58;;;1.50;;
79145;SDS011;68792;53.338;-1.502;2023-04-24T13:33:33;7.28;;;1.23;;
79145;SDS011;68792;53.338;-1.502;2023-04-24T13:35:58;2.67;;;0.95;;
79145;SDS011;68792;53.338;-1.502;2023-04-24T13:38:24;4.03;;;1.17;;
79145;SDS011;68792;53.338;-1.502;2023-04-24T13:40:49;4.90;;;1.02;;
79145;SDS011;68792;53.338;-1.502;2023-04-24T13:43:14;4.43;;;2.10;;
79145;SDS011;68792;53.338;-1.502;2023-04-24T13:45:40;6.13;;;2.50;;
79145;SDS011;68792;53.338;-1.502;2023-04-24T13:48:06;9.95;;;4.55;;
79145;SDS011;68792;53.338;-1.502;2023-04-24T13:50:31;5.05;;;3.13;;
79145;SDS011;68792;53.338;-1.502;2023-04-24T13:52:56;3.38;;;2.25;;
79145;SDS011;68792;53.338;-1.502;2023-04-24T13:55:22;3.28;;;2.13;;
79145;SDS011;68792;53.338;-1.502;2023-04-24T13:57:47;6.28;;;1.98;;
79145;SDS011;68792;53.338;-1.502;2023-04-24T14:00:14;4.93;;;2.25;;
79145;SDS011;68792;53.338;-1.502;2023-04-24T14:02:40;4.38;;;1.90;;
79145;SDS011;68792;53.338;-1.502;2023-04-24T14:05:05;3.80;;;1.60;;
79145;SDS011;68792;53.338;-1.502;2023-04-24T14:07:31;5.03;;;1.77;;
79145;SDS011;68792;53.338;-1.502;2023-04-24T14:09:56;7.80;;;2.40;;
79145;SDS011;68792;53.338;-1.502;2023-04-24T14:12:22;5.80;;;1.73;;
79145;SDS011;68792;53.338;-1.502;2023-04-24T14:14:47;11.80;;;2.25;;
79145;SDS011;68792;53.338;-1.502;2023-04-24T14:17:13;5.55;;;1.75;;
79145;SDS011;68792;53.338;-1.502;2023-04-24T14:19:39;4.20;;;1.20;;
79145;SDS011;68792;53.338;-1.502;2023-04-24T14:22:04;5.50;;;1.15;;
79145;SDS011;68792;53.338;-1.502;2023-04-24T14:24:30;4.88;;;1.80;;
79145;SDS011;68792;53.338;-1.502;2023-04-24T14:26:55;5.15;;;1.77;;
79145;SDS011;68792;53.338;-1.502;2023-04-24T14:29:21;3.13;;;1.50;;
79145;SDS011;68792;53.338;-1.502;2023-04-24T14:31:47;3.35;;;1.20;;
79145;SDS011;68792;53.338;-1.502;2023-04-24T14:34:13;4.63;;;1.38;;
79145;SDS011;68792;53.338;-1.502;2023-04-24T14:36:38;2.58;;;0.93;;
79145;SDS011;68792;53.338;-1.502;2023-04-24T14:39:04;5.57;;;1.60;;
79145;SDS011;68792;53.338;-1.502;2023-04-24T14:41:31;4.75;;;1.30;;
79145;SDS011;68792;53.338;-1.502;2023-04-24T14:43:58;4.63;;;0.82;;
79145;SDS011;68792;53.338;-1.502;2023-04-24T14:46:24;3.92;;;1.27;;
79145;SDS011;68792;53.338;-1.502;2023-04-24T14:48:49;2.38;;;0.80;;
79145;SDS011;68792;53.338;-1.502;2023-04-24T14:51:14;3.35;;;1.20;;
79145;SDS011;68792;53.338;-1.502;2023-04-24T14:53:40;4.65;;;1.27;;
79145;SDS011;68792;53.338;-1.502;2023-04-24T14:56:05;2.90;;;0.70;;
79145;SDS011;68792;53.338;-1.502;2023-04-24T14:58:31;3.67;;;0.95;;
79145;SDS011;68792;53.338;-1.502;2023-04-24T15:00:56;12.15;;;1.48;;
79145;SDS011;68792;53.338;-1.502;2023-04-24T15:03:22;2.22;;;0.90;;
79145;SDS011;68792;53.338;-1.502;2023-04-24T15:05:48;1.30;;;0.80;;
79145;SDS011;68792;53.338;-1.502;2023-04-24T15:08:13;2.08;;;0.85;;
79145;SDS011;68792;53.338;-1.502;2023-04-24T15:10:39;2.55;;;0.82;;
79145;SDS011;68792;53.338;-1.502;2023-04-24T15:13:04;2.53;;;0.80;;